createdAt,value
2023-08-17T00:02:17.492Z,26.50
2023-08-17T00:04:48.499Z,26.70
2023-08-17T00:07:19.394Z,26.50
2023-08-17T00:09:50.317Z,26.60
2023-08-17T00:12:21.218Z,26.40
2023-08-17T00:14:53.404Z,26.10
2023-08-17T00:17:24.532Z,26.20
2023-08-17T00:19:55.794Z,26.50
2023-08-17T00:22:26.709Z,26.50
2023-08-17T00:24:57.621Z,26.50
2023-08-17T00:27:28.494Z,26.30
2023-08-17T00:29:59.447Z,26.20
2023-08-17T00:32:30.366Z,26.50
2023-08-17T00:35:01.522Z,27.00
2023-08-17T00:37:32.454Z,27.00
2023-08-17T00:40:03.448Z,27.20
2023-08-17T00:42:34.408Z,27.20
2023-08-17T00:45:06.027Z,26.90
2023-08-17T00:47:37.585Z,27.10
2023-08-17T00:50:09.125Z,27.30
2023-08-17T00:52:40.309Z,27.40
2023-08-17T00:55:12.570Z,27.50
2023-08-17T00:57:43.742Z,27.40
2023-08-17T01:00:18.629Z,27.30
2023-08-17T01:02:51.055Z,27.10
2023-08-17T01:05:22.887Z,27.00
2023-08-17T01:07:53.991Z,26.90
2023-08-17T01:10:29.145Z,27.00
2023-08-17T01:13:12.932Z,27.10
2023-08-17T01:15:51.899Z,27.20
2023-08-17T01:18:28.530Z,27.10
2023-08-17T01:20:59.972Z,27.10
2023-08-17T01:23:31.356Z,26.90
2023-08-17T01:26:02.447Z,27.30
2023-08-17T01:28:33.604Z,27.20
2023-08-17T01:31:14.892Z,27.70
2023-08-17T01:33:55.024Z,27.60
2023-08-17T01:36:42.175Z,27.30
2023-08-17T01:39:14.185Z,27.20
2023-08-17T01:41:48.079Z,27.20
2023-08-17T01:44:19.026Z,27.40
2023-08-17T01:46:50.177Z,27.20
2023-08-17T01:49:21.204Z,27.10
2023-08-17T01:51:52.165Z,27.00
2023-08-17T01:54:23.314Z,27.20
2023-08-17T01:56:54.211Z,27.30
2023-08-17T01:59:25.178Z,27.20
2023-08-17T02:01:56.128Z,27.20
2023-08-17T02:04:27.141Z,27.80
2023-08-17T02:06:58.086Z,27.90
2023-08-17T02:09:29.092Z,27.70
2023-08-17T02:12:00.060Z,27.10
2023-08-17T02:14:30.952Z,27.00
2023-08-17T02:17:02.022Z,27.10
2023-08-17T02:19:34.063Z,26.90
2023-08-17T02:22:05.993Z,26.90
2023-08-17T02:24:36.932Z,26.60
2023-08-17T02:27:10.094Z,26.70
2023-08-17T02:29:41.056Z,26.60
2023-08-17T02:32:12.076Z,26.90
2023-08-17T02:34:43.006Z,26.60
2023-08-17T02:37:13.889Z,26.60
2023-08-17T02:39:44.915Z,26.90
2023-08-17T02:42:15.878Z,27.10
2023-08-17T02:44:46.775Z,27.00
2023-08-17T02:47:17.795Z,27.10
2023-08-17T02:49:50.553Z,27.10
2023-08-17T02:52:21.500Z,27.00
2023-08-17T02:54:52.554Z,27.10
2023-08-17T02:57:23.711Z,27.00
2023-08-17T02:59:55.098Z,27.10
2023-08-17T03:02:26.242Z,26.80
2023-08-17T03:04:57.192Z,26.80
2023-08-17T03:07:28.448Z,26.80
2023-08-17T03:09:59.453Z,26.70
2023-08-17T03:12:30.356Z,26.90
2023-08-17T03:15:01.550Z,27.10
2023-08-17T03:17:32.531Z,27.00
2023-08-17T03:20:06.972Z,26.60
2023-08-17T03:22:37.927Z,26.70
2023-08-17T03:25:09.677Z,27.00
2023-08-17T03:27:40.570Z,27.00
2023-08-17T03:30:11.825Z,27.20
2023-08-17T03:32:42.802Z,27.40
2023-08-17T03:35:14.344Z,26.90
2023-08-17T03:37:46.276Z,26.90
2023-08-17T03:40:17.309Z,26.80
2023-08-17T03:42:48.199Z,26.90
2023-08-17T03:45:19.685Z,26.70
2023-08-17T03:47:50.556Z,26.70
2023-08-17T03:50:21.503Z,27.00
2023-08-17T03:52:52.469Z,26.80
2023-08-17T03:55:23.653Z,26.80
2023-08-17T03:57:54.582Z,26.60
2023-08-17T04:00:25.526Z,26.80
2023-08-17T04:02:56.541Z,26.80
2023-08-17T04:05:28.866Z,27.00
2023-08-17T04:08:03.652Z,26.80
2023-08-17T04:10:34.533Z,27.00
2023-08-17T04:13:05.951Z,27.10
2023-08-17T04:15:36.860Z,27.00
2023-08-17T04:18:07.906Z,26.80
2023-08-17T04:20:38.874Z,27.00
2023-08-17T04:23:09.766Z,26.90
2023-08-17T04:25:40.792Z,26.90
2023-08-17T04:28:11.791Z,27.00
2023-08-17T04:30:43.936Z,27.00
2023-08-17T04:33:14.857Z,27.10
2023-08-17T04:35:49.212Z,26.90
2023-08-17T04:38:20.137Z,27.00
2023-08-17T04:40:51.072Z,27.10
2023-08-17T04:43:21.948Z,27.00
2023-08-17T04:45:52.903Z,27.10
2023-08-17T04:48:23.876Z,27.00
2023-08-17T04:50:54.848Z,27.00
2023-08-17T04:53:25.767Z,26.80
2023-08-17T04:55:56.641Z,26.80
2023-08-17T04:58:27.538Z,26.80
2023-08-17T05:00:58.459Z,27.20
2023-08-17T05:03:33.650Z,27.30
2023-08-17T05:06:05.379Z,27.00
2023-08-17T05:08:36.491Z,27.60
2023-08-17T05:11:07.502Z,28.10
2023-08-17T05:13:38.507Z,28.30
2023-08-17T05:16:09.602Z,28.60
2023-08-17T05:18:40.609Z,28.70
2023-08-17T05:21:11.514Z,28.60
2023-08-17T05:23:42.477Z,28.70
2023-08-17T05:26:16.201Z,28.80
2023-08-17T05:28:47.556Z,28.90
2023-08-17T05:31:18.529Z,28.80
2023-08-17T05:33:49.453Z,28.50
2023-08-17T05:36:20.415Z,28.30
2023-08-17T05:38:51.340Z,28.40
2023-08-17T05:41:22.340Z,28.50
2023-08-17T05:43:53.261Z,28.50
2023-08-17T05:46:24.225Z,28.70
2023-08-17T05:48:55.453Z,28.70
2023-08-17T05:51:26.577Z,28.80
2023-08-17T05:53:57.557Z,28.80
2023-08-17T05:56:29.281Z,28.60
2023-08-17T05:59:00.599Z,28.60
2023-08-17T06:01:32.466Z,28.60
2023-08-17T06:04:04.648Z,28.70
2023-08-17T06:06:36.874Z,28.90
2023-08-17T06:09:09.469Z,28.40
2023-08-17T06:11:40.340Z,28.40
2023-08-17T06:14:11.554Z,28.70
2023-08-17T06:16:42.585Z,28.80
2023-08-17T06:19:13.554Z,28.60
2023-08-17T06:21:44.542Z,28.80
2023-08-17T06:24:15.431Z,28.60
2023-08-17T06:26:46.981Z,28.60
2023-08-17T06:29:17.854Z,28.50
2023-08-17T06:31:48.837Z,28.60
2023-08-17T06:34:19.719Z,28.80
2023-08-17T06:37:04.490Z,28.70
2023-08-17T06:39:35.447Z,28.90
2023-08-17T06:42:06.544Z,29.00
2023-08-17T06:44:37.462Z,29.00
2023-08-17T06:47:08.434Z,29.10
2023-08-17T06:49:39.433Z,29.10
2023-08-17T06:52:10.329Z,29.30
2023-08-17T06:54:41.246Z,29.10
2023-08-17T06:57:12.190Z,29.10
2023-08-17T06:59:43.218Z,29.20
2023-08-17T07:02:14.163Z,29.10
2023-08-17T07:04:45.120Z,29.10
2023-08-17T07:07:16.072Z,29.10
2023-08-17T07:09:47.100Z,28.60
2023-08-17T07:12:18.099Z,28.10
2023-08-17T07:14:49.073Z,28.40
2023-08-17T07:17:20.289Z,28.60
2023-08-17T07:20:13.745Z,28.80
2023-08-17T07:22:42.133Z,29.10
2023-08-17T07:25:13.078Z,28.90
2023-08-17T07:27:44.104Z,28.80
2023-08-17T07:30:15.033Z,29.10
2023-08-17T07:32:46.073Z,29.20
2023-08-17T07:35:17.133Z,28.60
2023-08-17T07:37:59.521Z,27.90
2023-08-17T07:40:34.990Z,28.50
2023-08-17T07:43:06.083Z,28.80
2023-08-17T07:45:37.146Z,28.50
2023-08-17T07:48:08.253Z,28.90
2023-08-17T07:50:39.227Z,28.40
2023-08-17T07:53:10.148Z,28.60
2023-08-17T07:55:41.295Z,28.50
2023-08-17T07:58:12.344Z,28.80
2023-08-17T08:00:43.605Z,29.20
2023-08-17T08:03:16.501Z,29.40
2023-08-17T08:05:47.485Z,29.30
2023-08-17T08:08:18.736Z,29.20
2023-08-17T08:10:49.783Z,29.40
2023-08-17T08:13:20.696Z,29.10
2023-08-17T08:15:52.086Z,28.50
2023-08-17T08:18:23.155Z,28.70
2023-08-17T08:20:54.202Z,28.80
2023-08-17T08:23:25.152Z,28.70
2023-08-17T08:25:56.131Z,29.00
2023-08-17T08:28:27.109Z,29.20
2023-08-17T08:31:04.316Z,29.40
2023-08-17T08:33:35.269Z,29.60
2023-08-17T08:36:07.412Z,29.50
2023-08-17T08:38:38.405Z,29.70
2023-08-17T08:41:10.480Z,29.50
2023-08-17T08:43:41.547Z,29.50
2023-08-17T08:46:13.565Z,29.70
2023-08-17T08:48:46.470Z,29.90
2023-08-17T08:51:24.436Z,29.70
2023-08-17T08:54:04.208Z,29.70
2023-08-17T08:56:38.997Z,29.30
2023-08-17T08:59:10.344Z,30.00
2023-08-17T09:01:42.179Z,29.80
2023-08-17T09:04:13.195Z,30.10
2023-08-17T09:06:45.066Z,30.30
2023-08-17T09:09:17.982Z,30.60
2023-08-17T09:11:48.909Z,30.20
2023-08-17T09:14:19.845Z,30.40
2023-08-17T09:16:51.261Z,30.10
2023-08-17T09:19:22.951Z,30.30
2023-08-17T09:21:54.250Z,30.40
2023-08-17T09:24:25.371Z,30.40
2023-08-17T09:26:59.641Z,30.40
2023-08-17T09:29:38.040Z,30.70
2023-08-17T09:32:09.313Z,30.50
2023-08-17T09:34:48.984Z,30.70
2023-08-17T09:37:20.410Z,31.10
2023-08-17T09:39:51.430Z,30.70
2023-08-17T09:42:23.906Z,30.70
2023-08-17T09:44:56.727Z,30.80
2023-08-17T09:47:28.322Z,31.10
2023-08-17T09:49:59.636Z,31.10
2023-08-17T09:52:31.018Z,31.40
2023-08-17T09:57:40.361Z,31.60
2023-08-17T10:00:12.326Z,31.60
2023-08-17T10:02:52.397Z,31.70
2023-08-17T10:05:24.387Z,31.70
2023-08-17T10:07:59.254Z,31.60
2023-08-17T10:10:35.306Z,31.30
2023-08-17T10:13:29.067Z,31.80
2023-08-17T10:19:35.364Z,31.90
2023-08-17T10:22:19.191Z,31.80
2023-08-17T10:24:52.077Z,31.70
2023-08-17T10:27:23.448Z,31.40
2023-08-17T10:29:55.743Z,31.90
2023-08-17T10:32:27.693Z,32.20
2023-08-17T10:34:59.843Z,32.40
2023-08-17T10:37:31.257Z,32.40
2023-08-17T10:40:02.223Z,32.90
2023-08-17T10:42:37.760Z,32.90
2023-08-17T10:45:32.339Z,32.70
2023-08-17T10:48:09.821Z,32.60
2023-08-17T10:50:43.835Z,32.50
2023-08-17T10:53:19.159Z,32.50
2023-08-17T10:55:53.163Z,32.90
2023-08-17T10:58:24.401Z,33.20
2023-08-17T11:00:57.916Z,33.60
2023-08-17T11:03:30.560Z,33.80
2023-08-17T11:06:18.657Z,33.20
2023-08-17T11:08:57.020Z,33.50
2023-08-17T11:11:32.587Z,33.50
2023-08-17T11:14:03.908Z,33.40
2023-08-17T11:16:34.909Z,33.80
2023-08-17T11:19:05.876Z,34.80
2023-08-17T11:21:37.642Z,35.70
2023-08-17T11:24:11.478Z,35.60
2023-08-17T11:26:42.578Z,35.90
2023-08-17T11:29:13.625Z,34.90
2023-08-17T11:31:44.673Z,35.00
2023-08-17T11:34:16.544Z,35.40
2023-08-17T11:36:48.216Z,35.60
2023-08-17T11:39:22.138Z,36.60
2023-08-17T11:41:53.753Z,36.20
2023-08-17T11:44:26.196Z,35.70
2023-08-17T11:46:57.211Z,35.90
2023-08-17T11:49:28.129Z,35.90
2023-08-17T11:51:59.852Z,36.10
2023-08-17T11:54:34.908Z,36.30
2023-08-17T11:57:06.049Z,35.10
2023-08-17T11:59:37.236Z,35.50
2023-08-17T12:02:08.606Z,34.90
2023-08-17T12:04:39.706Z,34.90
2023-08-17T12:07:10.785Z,35.00
2023-08-17T12:09:42.477Z,35.40
2023-08-17T12:12:13.754Z,35.50
2023-08-17T12:14:45.446Z,35.00
2023-08-17T12:17:19.200Z,35.00
2023-08-17T12:19:51.797Z,35.10
2023-08-17T12:22:27.023Z,35.00
2023-08-17T12:24:58.172Z,35.10
2023-08-17T12:27:29.478Z,34.70
2023-08-17T12:30:00.483Z,34.80
2023-08-17T12:32:31.423Z,34.50
2023-08-17T12:35:02.443Z,34.20
2023-08-17T12:37:33.366Z,34.40
2023-08-17T12:40:04.978Z,34.20
2023-08-17T12:42:35.903Z,34.00
2023-08-17T12:45:07.352Z,34.00
2023-08-17T12:47:39.224Z,33.40
2023-08-17T12:50:10.615Z,33.20
2023-08-17T12:52:47.216Z,33.20
2023-08-17T12:55:18.500Z,33.10
2023-08-17T12:57:49.902Z,33.60
2023-08-17T13:00:20.818Z,33.40
2023-08-17T13:02:52.689Z,33.20
2023-08-17T13:05:23.978Z,32.80
2023-08-17T13:07:54.973Z,33.00
2023-08-17T13:10:25.992Z,33.10
2023-08-17T13:13:00.138Z,32.90
2023-08-17T13:15:33.709Z,32.90
2023-08-17T13:18:05.181Z,33.00
2023-08-17T13:20:37.607Z,32.70
2023-08-17T13:23:08.626Z,32.60
2023-08-17T13:25:39.680Z,32.50
2023-08-17T13:28:10.936Z,31.80
2023-08-17T13:30:43.839Z,31.60
2023-08-17T13:33:15.076Z,31.70
2023-08-17T13:35:46.135Z,31.00
2023-08-17T13:38:17.081Z,31.40
2023-08-17T13:40:48.104Z,30.80
2023-08-17T13:43:19.027Z,30.70
2023-08-17T13:45:50.059Z,31.10
2023-08-17T13:48:21.078Z,31.10
2023-08-17T13:50:51.986Z,31.40
2023-08-17T13:53:22.915Z,30.60
2023-08-17T13:55:53.941Z,30.40
2023-08-17T13:58:24.887Z,30.90
2023-08-17T14:00:55.883Z,30.70
2023-08-17T14:03:26.979Z,30.80
2023-08-17T14:05:58.015Z,30.80
2023-08-17T14:08:29.975Z,31.20
2023-08-17T14:11:01.538Z,30.80
2023-08-17T14:13:32.563Z,30.70
2023-08-17T14:16:04.505Z,30.80
2023-08-17T14:18:35.530Z,30.80
2023-08-17T14:21:06.457Z,30.60
2023-08-17T14:23:37.381Z,30.80
2023-08-17T14:26:08.610Z,30.60
2023-08-17T14:28:44.457Z,30.60
2023-08-17T14:31:18.704Z,30.60
2023-08-17T14:33:50.578Z,30.80
2023-08-17T14:36:21.717Z,31.10
2023-08-17T14:38:52.747Z,30.90
2023-08-17T14:41:23.662Z,30.80
2023-08-17T14:43:54.596Z,30.60
2023-08-17T14:46:26.923Z,30.50
2023-08-17T14:48:58.585Z,31.00
2023-08-17T14:51:32.134Z,30.90
2023-08-17T14:54:03.323Z,30.80
2023-08-17T14:56:34.329Z,30.80
2023-08-17T14:59:10.314Z,30.80
2023-08-17T15:01:41.798Z,31.00
2023-08-17T15:04:12.800Z,30.90
2023-08-17T15:06:43.910Z,30.90
2023-08-17T15:09:15.605Z,30.70
2023-08-17T15:11:47.054Z,30.70
2023-08-17T15:14:17.920Z,30.70
2023-08-17T15:16:49.048Z,30.70
2023-08-17T15:19:34.546Z,30.70
2023-08-17T15:22:15.531Z,31.50
2023-08-17T15:24:47.467Z,31.50
2023-08-17T15:27:18.458Z,31.50
2023-08-17T15:29:49.559Z,31.70
2023-08-17T15:32:20.705Z,31.80
2023-08-17T15:34:53.330Z,32.00
2023-08-17T15:37:25.462Z,31.90
2023-08-17T15:39:56.835Z,32.00
2023-08-17T15:42:27.983Z,32.10
2023-08-17T15:44:59.228Z,32.40
2023-08-17T15:47:30.492Z,32.10
2023-08-17T15:50:02.288Z,32.10
2023-08-17T15:52:33.214Z,32.20
2023-08-17T15:55:04.454Z,31.70
2023-08-17T15:57:35.461Z,31.80
2023-08-17T16:00:07.405Z,32.10
2023-08-17T16:02:38.399Z,32.40
2023-08-17T16:05:09.613Z,32.30
2023-08-17T16:07:40.536Z,31.90
2023-08-17T16:10:11.471Z,31.60
2023-08-17T16:12:43.318Z,31.80
2023-08-17T16:15:14.404Z,31.50
2023-08-17T16:17:45.452Z,31.80
2023-08-17T16:20:16.486Z,31.80
2023-08-17T16:22:47.464Z,31.80
2023-08-17T16:25:19.481Z,31.80
2023-08-17T16:27:50.440Z,31.90
2023-08-17T16:30:21.334Z,31.80
2023-08-17T16:32:52.545Z,31.70
2023-08-17T16:37:59.659Z,32.10
2023-08-17T16:40:38.153Z,32.00
2023-08-17T16:43:09.982Z,31.80
2023-08-17T16:45:41.906Z,31.70
2023-08-17T16:48:12.878Z,31.70
2023-08-17T16:50:44.092Z,31.90
2023-08-17T16:53:14.985Z,32.00
2023-08-17T16:55:54.076Z,32.00
2023-08-17T16:58:25.678Z,32.00
2023-08-17T17:00:56.802Z,32.40
2023-08-17T17:03:27.804Z,32.30
2023-08-17T17:05:58.697Z,32.80
2023-08-17T17:08:29.789Z,32.60
2023-08-17T17:11:00.657Z,32.90
2023-08-17T17:13:31.853Z,33.00
2023-08-17T17:16:03.109Z,33.10
2023-08-17T17:18:34.062Z,33.50
2023-08-17T17:21:07.647Z,33.20
2023-08-17T17:23:38.539Z,33.30
2023-08-17T17:26:09.504Z,33.70
2023-08-17T17:28:40.424Z,33.20
2023-08-17T17:31:11.352Z,33.50
2023-08-17T17:33:42.252Z,33.40
2023-08-17T17:36:13.199Z,33.10
2023-08-17T17:38:44.173Z,32.90
2023-08-17T17:41:15.220Z,32.70
2023-08-17T17:43:46.352Z,32.60
2023-08-17T17:46:19.875Z,32.40
2023-08-17T17:48:50.884Z,32.10
2023-08-17T17:51:22.240Z,32.20
2023-08-17T17:53:53.194Z,32.20
2023-08-17T17:56:44.214Z,32.10
2023-08-17T17:59:15.224Z,32.00
2023-08-17T18:01:46.272Z,31.80
2023-08-17T18:04:18.184Z,31.70
2023-08-17T18:06:49.252Z,31.60
2023-08-17T18:09:22.452Z,31.60
2023-08-17T18:11:53.328Z,31.40
2023-08-17T18:14:24.324Z,31.40
2023-08-17T18:16:55.256Z,31.50
2023-08-17T18:19:26.242Z,31.40
2023-08-17T18:21:57.169Z,31.30
2023-08-17T18:24:28.276Z,31.50
2023-08-17T18:26:59.341Z,31.40
2023-08-17T18:29:30.433Z,31.20
2023-08-17T18:32:01.462Z,31.10
2023-08-17T18:34:32.365Z,31.10
2023-08-17T18:37:03.608Z,31.30
2023-08-17T18:39:34.485Z,31.40
2023-08-17T18:42:05.819Z,31.40
2023-08-17T18:44:36.717Z,31.40
2023-08-17T18:47:07.656Z,31.30
2023-08-17T18:49:38.588Z,31.20
2023-08-17T18:52:09.531Z,31.20
2023-08-17T18:54:40.628Z,31.10
2023-08-17T18:57:12.187Z,31.10
2023-08-17T18:59:43.052Z,31.20
2023-08-17T19:02:13.977Z,31.10
2023-08-17T19:04:46.742Z,31.10
2023-08-17T19:07:18.686Z,31.10
2023-08-17T19:09:49.632Z,31.00
2023-08-17T19:12:20.753Z,30.90
2023-08-17T19:14:51.692Z,31.10
2023-08-17T19:17:22.740Z,31.00
2023-08-17T19:19:53.738Z,31.00
2023-08-17T19:22:24.663Z,31.10
2023-08-17T19:24:55.607Z,30.90
2023-08-17T19:27:26.795Z,31.00
2023-08-17T19:29:58.178Z,31.00
2023-08-17T19:32:29.122Z,30.90
2023-08-17T19:35:00.167Z,31.00
2023-08-17T19:37:33.344Z,30.90
2023-08-17T19:40:05.276Z,30.50
2023-08-17T19:42:36.327Z,30.50
2023-08-17T19:45:07.636Z,30.00
2023-08-17T19:47:38.595Z,30.10
2023-08-17T19:50:10.718Z,30.00
2023-08-17T19:52:41.661Z,30.00
2023-08-17T19:55:14.041Z,29.90
2023-08-17T19:57:45.050Z,30.10
2023-08-17T20:00:16.423Z,29.90
2023-08-17T20:02:47.582Z,29.80
2023-08-17T20:05:18.768Z,30.10
2023-08-17T20:07:49.789Z,30.40
2023-08-17T20:10:20.923Z,30.40
2023-08-17T20:12:51.870Z,30.60
2023-08-17T20:15:22.872Z,30.60
2023-08-17T20:17:53.928Z,30.50
2023-08-17T20:20:24.907Z,30.30
2023-08-17T20:22:55.946Z,30.30
2023-08-17T20:25:26.925Z,30.50
2023-08-17T20:27:57.900Z,30.50
2023-08-17T20:30:28.812Z,30.60
2023-08-17T20:33:00.244Z,30.50
2023-08-17T20:35:31.161Z,29.90
2023-08-17T20:38:02.095Z,29.80
2023-08-17T20:40:33.111Z,29.60
2023-08-17T20:43:04.291Z,29.40
2023-08-17T20:45:39.344Z,29.50
2023-08-17T20:48:11.481Z,29.30
2023-08-17T20:50:47.621Z,29.20
2023-08-17T20:53:18.709Z,29.10
2023-08-17T20:55:49.700Z,29.00
2023-08-17T20:58:20.769Z,28.80
2023-08-17T21:00:51.863Z,29.00
2023-08-17T21:03:23.366Z,29.10
2023-08-17T21:05:54.725Z,28.80
2023-08-17T21:08:25.614Z,28.90
2023-08-17T21:10:56.512Z,28.80
2023-08-17T21:13:27.409Z,28.80
2023-08-17T21:16:09.340Z,28.70
2023-08-17T21:18:40.245Z,28.60
2023-08-17T21:21:11.155Z,28.70
2023-08-17T21:23:42.063Z,28.60
2023-08-17T21:26:12.978Z,28.60
2023-08-17T21:28:43.866Z,28.70
2023-08-17T21:31:15.426Z,28.60
2023-08-17T21:33:46.380Z,28.50
2023-08-17T21:36:17.332Z,28.40
2023-08-17T21:38:48.350Z,28.30
2023-08-17T21:41:19.274Z,28.30
2023-08-17T21:43:53.164Z,28.40
2023-08-17T21:46:24.407Z,28.20
2023-08-17T21:48:55.398Z,28.10
2023-08-17T21:51:26.347Z,28.10
2023-08-17T21:53:59.492Z,28.10
2023-08-17T21:56:30.380Z,28.20
2023-08-17T21:59:01.308Z,28.20
2023-08-17T22:01:32.274Z,28.30
2023-08-17T22:04:03.356Z,28.20
2023-08-17T22:06:34.342Z,28.20
2023-08-17T22:09:05.389Z,28.10
2023-08-17T22:11:36.314Z,28.10
2023-08-17T22:14:07.260Z,28.10
2023-08-17T22:16:38.475Z,28.00
2023-08-17T22:19:09.347Z,28.10
2023-08-17T22:21:40.294Z,27.80
2023-08-17T22:24:11.312Z,27.70
2023-08-17T22:26:42.366Z,27.80
2023-08-17T22:29:13.580Z,27.70
2023-08-17T22:31:44.529Z,27.50
2023-08-17T22:34:15.475Z,27.50
2023-08-17T22:36:46.417Z,27.50
2023-08-17T22:39:17.326Z,27.60
2023-08-17T22:41:48.251Z,27.50
2023-08-17T22:44:19.243Z,27.40
2023-08-17T22:46:50.244Z,27.40
2023-08-17T22:49:21.273Z,27.60
2023-08-17T22:51:52.162Z,27.90
2023-08-17T22:54:23.072Z,27.70
2023-08-17T22:56:56.337Z,27.60
2023-08-17T22:59:27.318Z,27.40
2023-08-17T23:01:58.430Z,27.40
2023-08-17T23:04:29.548Z,27.20
2023-08-17T23:07:00.622Z,27.40
2023-08-17T23:09:31.645Z,27.30
2023-08-17T23:12:06.082Z,27.20
2023-08-17T23:14:37.092Z,27.30
2023-08-17T23:17:08.038Z,27.30
2023-08-17T23:19:38.945Z,27.20
2023-08-17T23:22:09.891Z,27.00
2023-08-17T23:24:40.793Z,27.10
2023-08-17T23:27:11.823Z,27.20
2023-08-17T23:29:42.712Z,27.20
2023-08-17T23:32:25.324Z,27.10
2023-08-17T23:34:58.668Z,27.10
2023-08-17T23:37:38.991Z,27.10
2023-08-17T23:40:10.263Z,27.10
2023-08-17T23:42:42.914Z,26.90
2023-08-17T23:45:14.458Z,26.90
2023-08-17T23:47:45.424Z,26.80
2023-08-17T23:50:16.443Z,26.70
2023-08-17T23:52:47.363Z,26.60
2023-08-17T23:55:18.756Z,26.50
2023-08-17T23:57:49.736Z,26.50
